Time;durP1;ratioP1;P1;durP2;ratioP2;P2;SDS_P1;SDS_P2;PMS_P1;PMS_P2;Temp;Humidity;BMP_temperature;BMP_pressure;BME280_temperature;BME280_humidity;BME280_pressure;Samples;Min_cycle;Max_cycle;Signal;HPM_P1;HPM_P2
2022/12/14 00:00:56;;;;;;;23.25;11.75;;;-2.60;99.90;;;;;;5060153;28;20229;-72
2022/12/14 00:03:22;;;;;;;21.13;11.93;;;-2.60;99.90;;;;;;5061444;28;20044;-72
2022/12/14 00:05:48;;;;;;;26.15;10.27;;;-2.40;99.90;;;;;;5064854;28;20051;-72
2022/12/14 00:08:15;;;;;;;19.13;9.70;;;-2.30;99.90;;;;;;5064544;28;20190;-72
2022/12/14 00:10:42;;;;;;;18.60;9.48;;;-2.40;99.90;;;;;;5065160;28;20025;-73
2022/12/14 00:13:09;;;;;;;16.92;10.57;;;-2.30;99.90;;;;;;5064251;28;20025;-72
2022/12/14 00:15:38;;;;;;;20.48;10.80;;;-2.40;99.90;;;;;;5063980;28;20060;-72
2022/12/14 00:18:04;;;;;;;19.48;10.48;;;-2.50;99.90;;;;;;5065266;28;20017;-74
2022/12/14 00:20:31;;;;;;;18.58;10.35;;;-2.40;99.90;;;;;;5064380;28;20141;-73
2022/12/14 00:22:56;;;;;;;19.85;8.93;;;-2.50;99.90;;;;;;5065611;28;20048;-73
2022/12/14 00:25:26;;;;;;;18.58;8.50;;;-2.00;99.90;;;;;;5066125;28;20032;-72
2022/12/14 00:27:52;;;;;;;19.10;8.18;;;;;;;;;;5066267;28;20025;-72
2022/12/14 00:30:19;;;;;;;15.82;8.27;;;-2.30;99.90;;;;;;5062381;28;20028;-72
2022/12/14 00:32:46;;;;;;;19.52;9.43;;;-2.20;99.90;;;;;;5065312;28;20020;-73
2022/12/14 00:35:17;;;;;;;19.40;9.13;;;-0.20;99.90;;;;;;5065667;28;20044;-72
2022/12/14 00:37:43;;;;;;;19.73;9.63;;;-2.10;99.90;;;;;;5065255;28;20273;-72
2022/12/14 00:40:09;;;;;;;20.17;9.13;;;-2.30;99.90;;;;;;5063932;28;20240;-73
2022/12/14 00:42:35;;;;;;;15.95;9.52;;;-2.10;99.90;;;;;;5062996;28;20031;-72
2022/12/14 00:45:02;;;;;;;18.70;10.07;;;-2.20;99.90;;;;;;5065195;28;20212;-71
2022/12/14 00:47:28;;;;;;;20.48;9.80;;;-2.30;99.90;;;;;;5065157;28;20021;-72
2022/12/14 00:49:54;;;;;;;21.67;9.35;;;-2.30;99.90;;;;;;5064687;28;20028;-72
2022/12/14 00:52:19;;;;;;;23.02;10.35;;;-2.30;99.90;;;;;;5079655;28;20309;-73
2022/12/14 00:54:45;;;;;;;21.27;9.25;;;-2.10;99.90;;;;;;5084867;28;20358;-72
2022/12/14 00:57:11;;;;;;;21.40;11.73;;;-2.20;99.90;;;;;;5083749;28;20080;-72
2022/12/14 00:59:36;;;;;;;20.50;9.15;;;-2.30;99.90;;;;;;5084913;28;20228;-72
2022/12/14 01:02:02;;;;;;;22.10;10.20;;;-2.20;99.90;;;;;;5083636;28;20101;-72
2022/12/14 01:04:28;;;;;;;21.00;10.60;;;-2.20;99.90;;;;;;5084907;28;20029;-74
2022/12/14 01:06:54;;;;;;;21.98;9.85;;;-2.20;99.90;;;;;;5083311;28;20047;-72
2022/12/14 01:09:22;;;;;;;16.05;9.10;;;-2.30;99.90;;;;;;5080548;28;20228;-72
2022/12/14 01:11:47;;;;;;;20.77;10.45;;;-2.30;99.90;;;;;;5082141;28;20323;-74
2022/12/14 01:14:16;;;;;;;24.60;11.70;;;-2.30;99.90;;;;;;5082752;28;20032;-73
2022/12/14 01:16:41;;;;;;;19.83;10.68;;;-2.00;99.90;;;;;;5081719;28;20028;-73
2022/12/14 01:19:09;;;;;;;22.05;9.55;;;-2.30;99.90;;;;;;5082309;28;20229;-72
2022/12/14 01:21:34;;;;;;;20.17;9.63;;;-2.60;99.90;;;;;;5082493;28;20068;-72
2022/12/14 01:24:02;;;;;;;21.98;11.13;;;-2.10;99.90;;;;;;5084393;28;20017;-72
2022/12/14 01:26:29;;;;;;;20.08;9.80;;;-2.20;99.90;;;;;;5085613;28;20043;-73
2022/12/14 01:28:57;;;;;;;17.55;9.20;;;-2.20;99.90;;;;;;5084240;28;20008;-72
2022/12/14 01:31:29;;;;;;;25.45;12.00;;;-2.20;99.90;;;;;;5083020;28;20497;-72
2022/12/14 01:33:55;;;;;;;20.95;9.07;;;-2.10;99.90;;;;;;5084530;28;20215;-72
2022/12/14 01:36:26;;;;;;;28.13;12.57;;;-2.20;99.90;;;;;;5084318;28;20036;-72
2022/12/14 01:38:57;;;;;;;21.42;11.40;;;-2.00;99.90;;;;;;5084375;28;20017;-72
2022/12/14 01:41:40;;;;;;;28.20;11.75;;;-2.10;99.90;;;;;;5083556;28;20503;-72
2022/12/14 01:44:09;;;;;;;22.70;11.18;;;-1.80;99.90;;;;;;5083450;28;20020;-72
2022/12/14 01:46:43;;;;;;;21.90;10.97;;;-2.30;99.90;;;;;;5082409;28;20327;-72
2022/12/14 01:49:30;;;;;;;35.60;12.80;;;-2.30;99.90;;;;;;5083084;28;20345;-72
2022/12/14 01:52:46;;;;;;;25.13;11.02;;;-2.10;99.90;;;;;;5083184;28;20024;-73
2022/12/14 01:55:42;;;;;;;26.45;10.93;;;-2.00;99.90;;;;;;5043127;28;20037;-72
2022/12/14 01:58:20;;;;;;;21.35;9.90;;;-2.10;99.90;;;;;;5083737;28;20050;-72
2022/12/14 02:00:46;;;;;;;26.42;10.35;;;-2.00;99.90;;;;;;5084521;28;20040;-72
2022/12/14 02:03:16;;;;;;;21.83;11.20;;;-2.10;99.90;;;;;;5083974;28;20375;-73
2022/12/14 02:05:51;;;;;;;21.85;10.95;;;-2.00;99.90;;;;;;5083522;28;20228;-72
2022/12/14 02:08:17;;;;;;;30.23;11.25;;;-2.00;99.90;;;;;;5083618;28;20059;-73
2022/12/14 02:10:45;;;;;;;23.42;11.15;;;-2.10;99.90;;;;;;5101551;28;20036;-72
2022/12/14 02:13:24;;;;;;;22.80;10.38;;;-2.00;99.90;;;;;;5085030;28;20097;-73
2022/12/14 02:15:50;;;;;;;25.50;12.10;;;-2.10;99.90;;;;;;5083769;28;20025;-72
2022/12/14 02:18:21;;;;;;;23.15;10.15;;;-2.10;99.90;;;;;;5083974;28;20330;-72
2022/12/14 02:21:21;;;;;;;20.75;10.68;;;-2.10;99.90;;;;;;5099441;28;20036;-72
2022/12/14 02:24:06;;;;;;;23.75;10.20;;;-2.20;99.90;;;;;;5083508;28;20060;-72
2022/12/14 02:26:46;;;;;;;20.92;11.43;;;-2.10;99.90;;;;;;5086306;28;20058;-73
2022/12/14 02:29:27;;;;;;;23.40;10.73;;;-2.30;99.90;;;;;;5087980;28;20024;-71
2022/12/14 02:32:21;;;;;;;23.02;11.18;;;-2.10;99.90;;;;;;5103291;28;20254;-72
2022/12/14 02:34:58;;;;;;;22.85;10.50;;;-2.20;99.90;;;;;;5069903;28;20032;-72
2022/12/14 02:37:53;;;;;;;19.83;10.65;;;-2.10;99.90;;;;;;5089100;28;20052;-72
2022/12/14 02:40:23;;;;;;;23.38;11.13;;;-2.10;99.90;;;;;;5087991;28;20036;-72
2022/12/14 02:43:22;;;;;;;30.45;14.90;;;-2.50;99.90;;;;;;5086744;28;20089;-72
2022/12/14 02:46:14;;;;;;;23.17;10.23;;;-2.00;99.90;;;;;;5103261;28;20047;-72
2022/12/14 02:48:57;;;;;;;24.40;9.73;;;-1.60;99.90;;;;;;5086975;28;20266;-72
2022/12/14 02:51:41;;;;;;;23.42;10.57;;;-2.10;99.90;;;;;;5088185;28;20028;-74
2022/12/14 02:54:18;;;;;;;24.20;9.60;;;-2.00;99.90;;;;;;5104498;28;20053;-72
2022/12/14 02:56:48;;;;;;;21.45;12.05;;;-2.00;99.90;;;;;;5088104;28;20078;-72
2022/12/14 02:59:16;;;;;;;22.98;11.00;;;-2.00;99.90;;;;;;5085518;28;20043;-72
2022/12/14 03:01:45;;;;;;;24.13;10.63;;;-2.20;99.90;;;;;;5086645;28;20025;-72
2022/12/14 03:04:10;;;;;;;21.58;11.60;;;-2.10;99.90;;;;;;5084018;28;20033;-73
2022/12/14 03:06:36;;;;;;;21.38;11.30;;;-2.00;99.90;;;;;;5087119;28;20104;-73
2022/12/14 03:09:10;;;;;;;19.73;10.38;;;-1.90;99.90;;;;;;5104621;28;20017;-75
2022/12/14 03:11:40;;;;;;;25.00;9.43;;;-1.90;99.90;;;;;;5088615;28;20351;-74
2022/12/14 03:14:12;;;;;;;23.58;10.52;;;-1.80;99.90;;;;;;5086280;28;20028;-73
2022/12/14 03:16:46;;;;;;;23.33;11.55;;;-2.00;99.90;;;;;;5087627;28;20058;-75
2022/12/14 03:19:24;;;;;;;23.80;10.90;;;-1.90;99.90;;;;;;5104243;28;20089;-72
2022/12/14 03:21:58;;;;;;;25.45;11.30;;;-1.80;99.90;;;;;;5085692;28;20236;-72
2022/12/14 03:24:42;;;;;;;30.60;13.98;;;-1.90;99.90;;;;;;5101811;28;20027;-72
2022/12/14 03:27:21;;;;;;;25.25;11.70;;;-1.90;99.90;;;;;;5085859;28;20150;-72
2022/12/14 03:29:56;;;;;;;;;;;-2.00;99.90;;;;;;5102788;28;20228;-72
2022/12/14 03:32:26;;;;;;;30.85;11.48;;;-2.10;99.90;;;;;;5085231;28;20124;-71
2022/12/14 03:34:55;;;;;;;29.73;13.48;;;-2.00;99.90;;;;;;5102326;28;20028;-74
2022/12/14 03:37:26;;;;;;;33.58;13.35;;;-2.10;99.90;;;;;;5085524;28;20020;-74
2022/12/14 03:39:52;;;;;;;25.30;11.27;;;-1.90;99.90;;;;;;5100631;28;20032;-72
2022/12/14 03:42:37;;;;;;;29.55;10.70;;;-2.10;99.90;;;;;;5085736;28;20055;-72
2022/12/14 03:45:19;;;;;;;24.48;10.27;;;-1.80;99.90;;;;;;5085744;28;20024;-73
2022/12/14 03:48:00;;;;;;;22.50;11.48;;;-2.00;99.90;;;;;;5085541;28;20027;-75
2022/12/14 03:50:40;;;;;;;32.78;12.18;;;-1.90;99.90;;;;;;5084322;28;20327;-73
2022/12/14 03:53:15;;;;;;;31.48;12.75;;;-2.00;99.90;;;;;;5085073;28;20035;-73
2022/12/14 03:56:02;;;;;;;25.75;12.20;;;-1.90;99.90;;;;;;5101457;28;20021;-73
2022/12/14 03:58:52;;;;;;;28.90;11.65;;;-1.90;99.90;;;;;;5085320;28;20328;-73
2022/12/14 04:01:38;;;;;;;23.75;12.40;;;-1.60;99.90;;;;;;5086517;28;20040;-73
2022/12/14 04:04:20;;;;;;;26.90;12.48;;;-1.90;99.90;;;;;;5084917;28;20105;-73
2022/12/14 04:06:57;;;;;;;32.20;12.00;;;-1.80;99.90;;;;;;5084286;28;20028;-72
2022/12/14 04:09:38;;;;;;;24.45;11.63;;;-1.70;99.90;;;;;;5085274;28;20250;-72
2022/12/14 04:21:26;;;;;;;27.52;12.23;;;-2.00;99.90;;;;;;5086479;28;20046;-73
2022/12/14 04:27:03;;;;;;;24.73;10.93;;;-1.80;99.90;;;;;;5086022;28;20067;-71
2022/12/14 04:32:25;;;;;;;26.80;11.70;;;-0.20;99.90;;;;;;5084431;28;20354;-73
2022/12/14 04:35:01;;;;;;;29.58;11.55;;;-2.00;99.90;;;;;;5087058;28;20324;-74
2022/12/14 04:37:27;;;;;;;23.98;11.85;;;-1.50;99.90;;;;;;5086450;28;20063;-74
2022/12/14 04:40:04;;;;;;;25.05;12.32;;;-1.80;99.90;;;;;;5086743;28;20048;-73
2022/12/14 04:42:33;;;;;;;27.42;12.50;;;-1.90;99.90;;;;;;5086529;28;20098;-73
2022/12/14 04:45:07;;;;;;;;;;;-1.70;99.90;;;;;;5088199;28;20025;-73
2022/12/14 04:47:39;;;;;;;22.30;11.52;;;-1.80;99.90;;;;;;5084054;28;19992;-75
2022/12/14 04:50:08;;;;;;;32.65;12.80;;;-1.70;99.90;;;;;;5098359;28;20055;-77
2022/12/14 04:52:44;;;;;;;27.35;12.38;;;-1.70;99.90;;;;;;5098608;28;20057;-73
2022/12/14 04:55:43;;;;;;;20.55;12.43;;;-1.70;99.90;;;;;;5080822;28;20106;-74
2022/12/14 04:58:14;;;;;;;27.65;11.13;;;-1.50;99.90;;;;;;5080520;28;20028;-74
2022/12/14 05:01:08;;;;;;;26.98;13.07;;;-1.80;99.90;;;;;;5085977;28;20085;-75
2022/12/14 05:03:41;;;;;;;26.25;12.88;;;-1.60;99.90;;;;;;5085881;28;20092;-73
2022/12/14 05:06:47;;;;;;;34.72;14.48;;;-1.60;99.90;;;;;;5084564;28;20024;-75
2022/12/14 05:09:18;;;;;;;27.73;11.88;;;-1.70;99.90;;;;;;5078712;28;20063;-72
2022/12/14 05:12:22;;;;;;;26.17;12.63;;;-1.60;99.90;;;;;;5079001;28;20193;-74
2022/12/14 05:15:06;;;;;;;20.88;10.57;;;-1.50;99.90;;;;;;5045375;28;20128;-75
2022/12/14 05:17:37;;;;;;;28.73;11.43;;;-1.50;99.90;;;;;;5080073;28;20051;-73
2022/12/14 05:20:04;;;;;;;21.25;9.98;;;-1.60;99.90;;;;;;5080473;28;20033;-74
2022/12/14 05:22:30;;;;;;;28.25;12.45;;;-1.50;99.90;;;;;;5079208;28;20048;-74
2022/12/14 05:24:55;;;;;;;29.92;12.27;;;-1.60;99.90;;;;;;5099278;28;20043;-75
2022/12/14 05:27:21;;;;;;;27.58;11.23;;;0.50;99.90;;;;;;5097347;28;20023;-73
2022/12/14 05:29:47;;;;;;;19.42;10.57;;;;;;;;;;5084611;28;20020;-74
2022/12/14 05:32:13;;;;;;;24.05;12.30;;;-1.60;99.90;;;;;;5101031;28;20025;-74
2022/12/14 05:34:39;;;;;;;24.70;11.82;;;-1.60;99.90;;;;;;5085391;28;20036;-75
2022/12/14 05:37:04;;;;;;;29.02;12.55;;;-1.50;99.90;;;;;;5085309;28;20083;-74
2022/12/14 05:39:30;;;;;;;29.02;12.98;;;;;;;;;;5085982;28;20021;-73
2022/12/14 05:41:56;;;;;;;28.55;12.35;;;-1.60;99.90;;;;;;5083332;28;20024;-72
2022/12/14 05:44:22;;;;;;;30.05;11.75;;;-2.30;99.90;;;;;;5084180;28;20019;-73
2022/12/14 05:46:47;;;;;;;30.35;11.98;;;-1.50;99.90;;;;;;5099901;28;20072;-73
2022/12/14 05:49:13;;;;;;;22.48;11.90;;;-1.30;99.90;;;;;;5082146;28;20029;-73
2022/12/14 05:51:39;;;;;;;24.92;10.98;;;-1.60;99.90;;;;;;5082805;28;20017;-73
2022/12/14 05:54:04;;;;;;;24.38;12.13;;;-1.50;99.90;;;;;;5078372;28;20020;-72
2022/12/14 05:56:30;;;;;;;28.70;12.80;;;-1.10;99.90;;;;;;5075716;28;20029;-74
2022/12/14 05:58:56;;;;;;;23.67;10.25;;;-1.40;99.90;;;;;;5058500;28;20020;-73
2022/12/14 06:01:22;;;;;;;22.05;12.48;;;-1.30;99.90;;;;;;5062105;28;20032;-73
2022/12/14 06:03:51;;;;;;;23.70;11.27;;;-1.30;99.90;;;;;;5063140;28;20025;-73
2022/12/14 06:06:17;;;;;;;24.88;11.48;;;-1.30;99.90;;;;;;5062695;28;20078;-73
2022/12/14 06:08:44;;;;;;;27.15;11.95;;;-1.20;99.90;;;;;;5063380;28;20088;-73
2022/12/14 06:11:15;;;;;;;30.25;11.75;;;-1.20;99.90;;;;;;5061484;28;20028;-72
2022/12/14 06:13:42;;;;;;;29.15;12.60;;;-1.00;99.90;;;;;;5061927;28;20491;-73
2022/12/14 06:16:17;;;;;;;26.95;11.80;;;-1.20;99.90;;;;;;5063446;28;20256;-73
2022/12/14 06:18:51;;;;;;;27.52;10.93;;;-1.00;99.90;;;;;;5061708;28;20029;-73
2022/12/14 06:21:19;;;;;;;24.25;11.75;;;-1.00;99.90;;;;;;5061588;28;20060;-73
2022/12/14 06:23:45;;;;;;;26.25;11.18;;;-1.00;99.90;;;;;;5063116;28;20224;-72
2022/12/14 06:26:11;;;;;;;28.42;12.15;;;-1.00;99.90;;;;;;5064560;28;20025;-73
2022/12/14 06:28:37;;;;;;;29.95;11.48;;;-0.90;99.90;;;;;;5066245;28;20075;-73
2022/12/14 06:31:04;;;;;;;30.20;11.60;;;-0.80;99.90;;;;;;5062812;28;20095;-73
2022/12/14 06:33:34;;;;;;;30.60;12.57;;;-1.10;99.90;;;;;;5063815;28;20017;-73
2022/12/14 06:36:00;;;;;;;29.88;11.95;;;;;;;;;;5064936;28;20025;-73
2022/12/14 06:38:26;;;;;;;27.33;14.23;;;-0.80;99.90;;;;;;5064210;28;20025;-73
2022/12/14 06:40:52;;;;;;;31.77;12.18;;;-0.90;99.90;;;;;;5066545;28;20086;-72
2022/12/14 06:43:18;;;;;;;29.38;13.45;;;;;;;;;;5064077;28;20029;-73
2022/12/14 06:45:43;;;;;;;23.73;10.85;;;-1.00;99.90;;;;;;5065975;28;20033;-74
2022/12/14 06:48:09;;;;;;;33.35;13.65;;;-1.00;99.90;;;;;;5064709;28;20194;-73
2022/12/14 06:50:35;;;;;;;24.33;12.02;;;-0.80;99.90;;;;;;5063956;28;20021;-74
2022/12/14 06:53:00;;;;;;;26.70;12.68;;;-0.80;99.90;;;;;;5064411;28;20548;-72
2022/12/14 06:55:26;;;;;;;26.75;12.02;;;-0.90;99.90;;;;;;5065686;28;20020;-73
2022/12/14 06:57:53;;;;;;;31.52;14.75;;;-0.90;99.90;;;;;;5065167;28;20028;-73
2022/12/14 07:00:21;;;;;;;28.20;12.75;;;-0.90;99.90;;;;;;5066054;28;20044;-73
2022/12/14 07:02:47;;;;;;;35.47;13.32;;;-1.00;99.90;;;;;;5066673;28;20045;-73
2022/12/14 07:05:13;;;;;;;33.38;14.00;;;-0.90;99.90;;;;;;5067429;28;20063;-72
2022/12/14 07:07:40;;;;;;;28.77;13.77;;;-0.80;99.90;;;;;;5064158;28;20196;-73
2022/12/14 07:10:07;;;;;;;27.58;12.50;;;-0.60;99.90;;;;;;5064918;28;20048;-73
2022/12/14 07:12:33;;;;;;;28.50;13.65;;;-0.60;99.90;;;;;;5066685;28;20508;-75
2022/12/14 07:14:58;;;;;;;29.88;13.25;;;-0.90;99.90;;;;;;5069030;28;20080;-74
2022/12/14 07:17:24;;;;;;;26.98;13.52;;;-1.00;99.90;;;;;;5068032;28;20320;-74
2022/12/14 07:19:52;;;;;;;33.28;13.85;;;-0.80;99.90;;;;;;5066743;28;20021;-74
2022/12/14 07:22:18;;;;;;;28.10;13.20;;;-0.90;99.90;;;;;;5066460;28;20075;-75
2022/12/14 07:24:44;;;;;;;28.88;14.05;;;-0.90;99.90;;;;;;5062707;28;20021;-73
2022/12/14 07:27:10;;;;;;;35.05;14.05;;;-0.60;99.90;;;;;;5064351;28;20063;-73
2022/12/14 07:29:36;;;;;;;36.78;14.80;;;-1.00;99.90;;;;;;5066978;28;20029;-74
2022/12/14 07:32:02;;;;;;;30.65;12.50;;;-0.20;99.90;;;;;;5067542;28;20251;-73
2022/12/14 07:34:28;;;;;;;35.08;13.85;;;-0.60;99.90;;;;;;5066561;28;20031;-73
2022/12/14 07:36:53;;;;;;;34.40;15.05;;;-0.90;99.90;;;;;;5067262;28;20044;-74
2022/12/14 07:39:20;;;;;;;29.55;13.15;;;-0.70;99.90;;;;;;5064167;28;20031;-74
2022/12/14 07:41:47;;;;;;;27.95;12.07;;;-0.90;99.90;;;;;;5066271;28;20035;-75
2022/12/14 07:44:13;;;;;;;29.02;14.55;;;-1.00;99.90;;;;;;5066045;28;20027;-74
2022/12/14 07:46:40;;;;;;;32.95;17.17;;;-0.80;99.90;;;;;;5061876;28;20477;-74
2022/12/14 07:49:06;;;;;;;32.03;14.43;;;-0.70;99.90;;;;;;5073364;28;20027;-73
2022/12/14 07:51:35;;;;;;;33.05;14.77;;;-0.60;99.90;;;;;;5063378;28;20056;-75
2022/12/14 07:54:02;;;;;;;43.47;15.57;;;-0.40;99.90;;;;;;5067954;28;20040;-76
2022/12/14 07:56:30;;;;;;;34.35;14.52;;;-0.50;99.90;;;;;;5072745;28;20036;-76
2022/12/14 07:58:57;;;;;;;40.55;17.73;;;-0.60;99.90;;;;;;5074735;28;20352;-78
2022/12/14 08:01:25;;;;;;;32.13;14.20;;;-0.40;99.90;;;;;;5068348;28;20064;-75
2022/12/14 08:04:08;;;;;;;32.25;14.55;;;-0.40;99.90;;;;;;5063551;28;20027;-79
2022/12/14 08:06:35;;;;;;;32.50;15.13;;;-0.30;99.90;;;;;;5070444;28;20032;-76
2022/12/14 08:09:01;;;;;;;39.78;16.98;;;-0.20;99.90;;;;;;5070532;28;20228;-77
2022/12/14 08:11:27;;;;;;;33.42;14.45;;;-0.30;99.90;;;;;;5074093;28;20040;-82
2022/12/14 08:13:53;;;;;;;32.60;14.45;;;-0.20;99.90;;;;;;5076266;28;20033;-79
2022/12/14 08:16:19;;;;;;;31.70;14.10;;;;;;;;;;5078955;28;20051;-77
2022/12/14 08:18:45;;;;;;;32.15;13.40;;;;;;;;;;5084000;28;20016;-77
2022/12/14 08:21:13;;;;;;;34.80;16.27;;;-0.30;99.90;;;;;;5080963;28;20029;-80
2022/12/14 08:23:40;;;;;;;37.90;14.38;;;;;;;;;;5059681;28;20029;-78
2022/12/14 08:26:06;;;;;;;29.73;13.35;;;;;;;;;;5053849;28;20100;-79
2022/12/14 08:28:34;;;;;;;53.25;17.15;;;-0.30;99.90;;;;;;5059930;28;20028;-79
2022/12/14 08:31:08;;;;;;;32.88;14.00;;;-0.40;99.90;;;;;;5056178;28;20025;-76
2022/12/14 08:33:36;;;;;;;31.83;15.32;;;-0.40;99.90;;;;;;5066847;28;20025;-80
2022/12/14 08:36:09;;;;;;;38.70;15.70;;;1.10;99.90;;;;;;5055683;28;20025;-77
2022/12/14 08:38:35;;;;;;;32.40;15.52;;;-0.10;99.90;;;;;;5059830;28;20089;-77
2022/12/14 08:41:04;;;;;;;35.83;15.82;;;-0.20;99.90;;;;;;5059889;28;20283;-77
2022/12/14 08:43:29;;;;;;;30.08;15.88;;;0.00;99.90;;;;;;5051652;28;20022;-76
2022/12/14 08:45:55;;;;;;;30.45;13.38;;;-0.10;99.90;;;;;;5050692;28;20109;-77
2022/12/14 08:48:21;;;;;;;32.72;15.55;;;-0.10;99.90;;;;;;5049169;28;20071;-77
2022/12/14 08:50:46;;;;;;;29.98;14.90;;;-0.10;99.90;;;;;;5049392;28;20021;-77
2022/12/14 08:53:12;;;;;;;31.73;13.32;;;-0.20;99.90;;;;;;5052657;28;20017;-76
2022/12/14 08:55:37;;;;;;;35.72;15.10;;;-0.10;99.90;;;;;;5053875;28;20021;-75
2022/12/14 08:58:03;;;;;;;30.05;14.00;;;0.10;99.90;;;;;;5059780;28;20021;-77
2022/12/14 09:00:29;;;;;;;27.05;13.63;;;0.00;99.90;;;;;;5055997;28;20032;-77
2022/12/14 09:02:55;;;;;;;38.70;14.52;;;;;;;;;;5066903;28;20013;-78
2022/12/14 09:05:21;;;;;;;35.80;15.70;;;;;;;;;;5058364;28;20013;-76
2022/12/14 09:07:46;;;;;;;37.15;17.13;;;-0.20;99.90;;;;;;5042106;28;20049;-76
2022/12/14 09:10:12;;;;;;;37.13;17.98;;;;;;;;;;5035214;28;20033;-77
2022/12/14 09:12:38;;;;;;;28.77;16.20;;;;;;;;;;5051697;28;20151;-77
2022/12/14 09:15:05;;;;;;;38.35;16.27;;;0.10;99.90;;;;;;5059238;28;20229;-78
2022/12/14 09:17:31;;;;;;;34.83;14.90;;;0.20;99.90;;;;;;5051959;28;20032;-76
2022/12/14 09:19:57;;;;;;;32.92;15.93;;;0.10;99.90;;;;;;5049407;28;20025;-77
2022/12/14 09:22:23;;;;;;;31.05;13.60;;;;;;;;;;5064426;28;20524;-75
2022/12/14 09:24:50;;;;;;;29.55;13.98;;;-0.10;99.90;;;;;;5075485;28;20029;-76
2022/12/14 09:27:16;;;;;;;29.30;13.70;;;-0.20;99.90;;;;;;5075548;28;20025;-75
2022/12/14 09:29:43;;;;;;;26.15;11.73;;;;;;;;;;5074909;28;20027;-76
2022/12/14 09:32:09;;;;;;;29.05;13.70;;;;;;;;;;5076370;28;20025;-77
2022/12/14 09:34:35;;;;;;;26.17;12.48;;;;;;;;;;5074517;28;20116;-76
2022/12/14 09:37:06;;;;;;;34.20;13.48;;;0.10;99.90;;;;;;5078696;28;20102;-76
2022/12/14 09:39:35;;;;;;;29.05;12.32;;;-0.20;99.90;;;;;;5076907;28;20024;-77
2022/12/14 09:42:01;;;;;;;;;;;1.90;99.90;;;;;;5076711;28;20182;-78
2022/12/14 09:44:38;;;;;;;30.08;11.93;;;-0.20;99.90;;;;;;5073712;28;20073;-75
2022/12/14 09:47:22;;;;;;;26.48;13.52;;;-0.10;99.90;;;;;;5078490;28;20020;-76
2022/12/14 09:50:04;;;;;;;30.50;12.98;;;-0.10;99.90;;;;;;5073742;28;20021;-74
2022/12/14 09:53:05;;;;;;;25.55;13.75;;;-0.10;99.90;;;;;;5074223;28;20025;-75
2022/12/14 09:55:36;;;;;;;24.98;11.60;;;0.10;99.90;;;;;;5038315;28;20032;-74
2022/12/14 09:58:06;;;;;;;27.70;12.27;;;1.00;99.90;;;;;;5072278;28;20031;-76
2022/12/14 10:00:42;;;;;;;24.23;12.43;;;1.50;99.90;;;;;;5070896;28;20036;-77
2022/12/14 10:03:29;;;;;;;37.75;15.77;;;1.50;99.90;;;;;;5070180;28;20247;-75
2022/12/14 10:06:23;;;;;;;26.95;13.18;;;0.30;99.90;;;;;;5061505;28;20024;-75
2022/12/14 10:09:01;;;;;;;26.13;11.88;;;0.40;99.90;;;;;;5063864;28;20059;-77
2022/12/14 10:12:02;;;;;;;28.15;12.70;;;0.50;99.90;;;;;;5063615;28;20025;-81
2022/12/14 10:14:48;;;;;;;32.03;12.73;;;0.40;99.90;;;;;;5057659;28;20032;-75
2022/12/14 10:17:51;;;;;;;34.05;14.10;;;-0.20;99.90;;;;;;5057594;28;20025;-75
2022/12/14 10:20:47;;;;;;;31.25;13.40;;;0.40;99.90;;;;;;5059310;28;20037;-75
2022/12/14 10:23:15;;;;;;;35.78;13.50;;;0.60;99.90;;;;;;5053734;28;20087;-74
2022/12/14 10:25:43;;;;;;;36.40;15.23;;;0.60;99.90;;;;;;5053509;28;20151;-74
2022/12/14 10:28:38;;;;;;;28.40;14.85;;;0.80;99.90;;;;;;5053822;28;20025;-75
2022/12/14 10:31:08;;;;;;;33.22;13.52;;;1.00;99.90;;;;;;5050203;28;20056;-76
2022/12/14 10:33:40;;;;;;;28.20;11.57;;;0.90;99.90;;;;;;5049746;28;20484;-76
2022/12/14 10:36:28;;;;;;;23.38;11.10;;;1.10;99.90;;;;;;5049353;28;20024;-75
2022/12/14 10:38:58;;;;;;;26.02;11.35;;;1.30;99.90;;;;;;5048233;28;20064;-76
2022/12/14 10:41:24;;;;;;;20.98;9.90;;;;;;;;;;5053429;28;20061;-77
2022/12/14 10:44:04;;;;;;;23.58;10.77;;;0.60;99.90;;;;;;5047939;28;20064;-76
2022/12/14 10:46:53;;;;;;;24.55;11.77;;;0.80;99.90;;;;;;5052156;28;20017;-76
2022/12/14 10:49:35;;;;;;;25.63;13.55;;;0.70;99.90;;;;;;5072525;28;20469;-75
2022/12/14 10:52:13;;;;;;;22.17;10.52;;;0.60;99.90;;;;;;5054608;28;20025;-74
2022/12/14 10:54:45;;;;;;;23.90;12.30;;;0.80;99.90;;;;;;5064228;28;20251;-75
2022/12/14 10:57:28;;;;;;;30.60;13.82;;;0.50;99.90;;;;;;5067682;28;20295;-75
2022/12/14 10:59:56;;;;;;;18.42;9.68;;;0.60;99.90;;;;;;5060849;28;20033;-76
2022/12/14 11:02:27;;;;;;;22.88;10.68;;;0.70;99.90;;;;;;5061833;28;20025;-75
2022/12/14 11:05:00;;;;;;;27.23;12.70;;;0.80;99.90;;;;;;5069301;28;20058;-76
2022/12/14 11:07:29;;;;;;;26.05;11.48;;;1.10;99.90;;;;;;5082115;28;20074;-75
2022/12/14 11:10:20;;;;;;;20.50;11.85;;;1.10;99.90;;;;;;5077380;28;20351;-76
2022/12/14 11:12:54;;;;;;;22.40;11.00;;;1.10;99.90;;;;;;5063649;28;20016;-76
2022/12/14 11:15:28;;;;;;;20.50;11.10;;;0.90;99.90;;;;;;5062252;28;20096;-75
2022/12/14 11:18:19;;;;;;;24.05;11.55;;;1.20;99.90;;;;;;5064127;28;20017;-75
2022/12/14 11:20:54;;;;;;;23.38;13.90;;;1.40;99.90;;;;;;5074371;28;20332;-74
2022/12/14 11:23:26;;;;;;;24.17;11.63;;;0.80;99.90;;;;;;5072201;28;20156;-76
2022/12/14 11:26:00;;;;;;;27.65;12.57;;;0.90;99.90;;;;;;5062742;28;20013;-76
2022/12/14 11:28:35;;;;;;;27.10;13.20;;;0.60;99.90;;;;;;5075856;28;20091;-77
2022/12/14 11:31:06;;;;;;;29.73;12.30;;;0.80;99.90;;;;;;5071715;28;20012;-76
2022/12/14 11:33:39;;;;;;;26.30;13.32;;;0.90;99.90;;;;;;5068574;28;20088;-76
2022/12/14 11:36:07;;;;;;;25.08;11.35;;;0.90;99.90;;;;;;5073175;28;20212;-76
2022/12/14 11:38:33;;;;;;;27.67;12.20;;;1.00;99.90;;;;;;5071109;28;20242;-75
2022/12/14 11:41:01;;;;;;;29.30;12.65;;;1.20;99.90;;;;;;5073799;28;20025;-76
2022/12/14 11:43:31;;;;;;;31.05;14.85;;;1.40;99.90;;;;;;5071588;28;20043;-75
2022/12/14 11:45:58;;;;;;;24.30;12.90;;;1.70;99.90;;;;;;5066765;28;20025;-75
2022/12/14 11:48:26;;;;;;;26.67;11.95;;;1.80;99.90;;;;;;5066862;28;20021;-75
2022/12/14 11:50:54;;;;;;;27.85;12.43;;;1.80;99.90;;;;;;5069148;28;20020;-75
2022/12/14 11:53:21;;;;;;;34.17;12.73;;;1.80;99.90;;;;;;5069405;28;20116;-76
2022/12/14 11:55:58;;;;;;;27.23;13.75;;;2.20;99.90;;;;;;5067564;28;20234;-75
2022/12/14 11:58:29;;;;;;;23.45;10.52;;;2.00;99.90;;;;;;5061813;28;20450;-76
2022/12/14 12:00:59;;;;;;;21.73;10.68;;;3.70;99.90;;;;;;5068994;28;20067;-76
2022/12/14 12:03:41;;;;;;;29.25;12.57;;;2.10;99.90;;;;;;5074801;28;20213;-75
2022/12/14 12:06:11;;;;;;;21.98;10.10;;;-1.30;99.90;;;;;;5068902;28;20021;-77
2022/12/14 12:08:39;;;;;;;30.77;13.82;;;1.70;99.90;;;;;;5073621;28;20016;-75
2022/12/14 12:11:20;;;;;;;22.02;11.85;;;1.80;99.90;;;;;;5071291;28;20013;-75
2022/12/14 12:13:52;;;;;;;23.08;12.40;;;1.90;99.90;;;;;;5070943;28;20016;-76
2022/12/14 12:16:21;;;;;;;27.73;12.82;;;2.60;99.90;;;;;;5074561;28;20012;-75
2022/12/14 12:18:46;;;;;;;33.45;14.20;;;2.00;99.90;;;;;;5082501;28;20021;-75
2022/12/14 12:21:24;;;;;;;34.28;13.20;;;1.60;99.90;;;;;;5073102;28;20251;-76
2022/12/14 12:24:11;;;;;;;32.55;15.73;;;2.10;99.90;;;;;;5071144;28;20032;-75
2022/12/14 12:26:57;;;;;;;31.83;15.23;;;1.70;99.90;;;;;;5069918;28;20036;-75
2022/12/14 12:29:32;;;;;;;30.85;15.70;;;2.30;99.90;;;;;;5070171;28;20113;-75
2022/12/14 12:32:22;;;;;;;30.13;13.35;;;2.50;99.90;;;;;;5077980;28;20024;-75
2022/12/14 12:34:51;;;;;;;31.45;15.13;;;2.40;99.90;;;;;;5036004;28;20494;-75
2022/12/14 12:37:32;;;;;;;27.58;13.32;;;2.40;99.90;;;;;;5074846;28;20044;-74
2022/12/14 12:40:26;;;;;;;33.60;15.02;;;2.10;99.90;;;;;;5071428;28;20032;-74
2022/12/14 12:43:03;;;;;;;36.97;15.60;;;2.40;99.90;;;;;;5061244;28;20032;-74
2022/12/14 12:45:58;;;;;;;33.00;15.05;;;2.70;99.90;;;;;;5074167;28;20016;-74
2022/12/14 12:48:40;;;;;;;29.38;14.25;;;2.80;99.90;;;;;;5070510;28;20013;-74
2022/12/14 12:51:18;;;;;;;29.88;15.13;;;3.00;99.90;;;;;;5073870;28;20020;-73
2022/12/14 12:53:54;;;;;;;27.98;12.68;;;2.90;99.90;;;;;;5077193;28;20012;-74
2022/12/14 12:56:40;;;;;;;29.65;14.57;;;3.00;99.90;;;;;;5077613;28;20139;-74
2022/12/14 12:59:12;;;;;;;26.05;11.60;;;2.90;99.90;;;;;;5071742;28;20041;-74
2022/12/14 13:01:42;;;;;;;24.98;12.20;;;2.90;99.90;;;;;;5065676;28;20047;-74
2022/12/14 13:04:18;;;;;;;21.92;10.38;;;2.70;99.90;;;;;;5078049;28;20009;-74
2022/12/14 13:06:51;;;;;;;17.45;10.05;;;2.70;99.90;;;;;;5067703;28;20036;-73
2022/12/14 13:09:30;;;;;;;18.52;9.60;;;2.50;99.90;;;;;;5067899;28;20023;-74
2022/12/14 13:11:57;;;;;;;20.77;9.35;;;2.60;99.90;;;;;;5063435;28;20028;-74
2022/12/14 13:14:32;;;;;;;23.33;10.63;;;2.70;99.90;;;;;;5049832;28;20053;-74
2022/12/14 13:17:02;;;;;;;21.70;11.13;;;2.30;99.90;;;;;;5049460;28;20055;-74
2022/12/14 13:19:44;;;;;;;19.17;10.25;;;3.30;99.90;;;;;;5049088;28;20021;-74